createdAt,value
2023-04-30T00:01:56.421Z,9.88
2023-04-30T00:04:23.102Z,10.43
2023-04-30T00:06:49.747Z,10.38
2023-04-30T00:09:16.286Z,14.05
2023-04-30T00:11:42.760Z,14.98
2023-04-30T00:14:09.279Z,13.90
2023-04-30T00:16:35.789Z,15.77
2023-04-30T00:19:02.293Z,14.77
2023-04-30T00:21:28.761Z,15.48
2023-04-30T00:23:55.280Z,14.63
2023-04-30T00:26:21.780Z,14.00
2023-04-30T00:28:48.381Z,13.60
2023-04-30T00:31:15.252Z,13.35
2023-04-30T00:33:42.340Z,13.23
2023-04-30T00:36:08.954Z,14.32
2023-04-30T00:38:35.467Z,14.23
2023-04-30T00:41:02.378Z,14.10
2023-04-30T00:43:28.902Z,14.77
2023-04-30T00:45:55.442Z,14.38
2023-04-30T00:48:22.137Z,13.65
2023-04-30T00:50:48.697Z,13.32
2023-04-30T00:53:15.339Z,14.25
2023-04-30T00:55:43.443Z,14.32
2023-04-30T00:58:10.224Z,13.18
2023-04-30T01:00:36.751Z,13.43
2023-04-30T01:03:03.880Z,13.43
2023-04-30T01:05:30.514Z,13.73
2023-04-30T01:07:57.611Z,14.88
2023-04-30T01:10:30.378Z,14.35
2023-04-30T01:13:06.359Z,12.95
2023-04-30T01:15:45.640Z,11.75
2023-04-30T01:18:14.966Z,12.73
2023-04-30T01:20:48.579Z,12.95
2023-04-30T01:23:39.277Z,11.68
2023-04-30T01:26:11.809Z,10.30
2023-04-30T01:28:39.598Z,9.07
2023-04-30T01:31:18.098Z,9.98
2023-04-30T01:33:44.692Z,10.98
2023-04-30T01:36:32.489Z,11.20
2023-04-30T01:39:02.091Z,11.80
2023-04-30T01:41:40.096Z,12.13
2023-04-30T01:44:31.587Z,11.30
2023-04-30T01:47:18.084Z,10.93
2023-04-30T01:49:59.625Z,11.98
2023-04-30T01:52:39.387Z,11.63
2023-04-30T01:55:11.597Z,10.75
2023-04-30T01:57:43.723Z,10.05
2023-04-30T02:00:10.754Z,11.10
2023-04-30T02:02:37.518Z,10.77
2023-04-30T02:05:04.353Z,10.95
2023-04-30T02:07:38.122Z,10.95
2023-04-30T02:10:06.107Z,11.50
2023-04-30T02:12:32.636Z,10.98
2023-04-30T02:14:59.228Z,10.88
2023-04-30T02:17:25.733Z,11.30
2023-04-30T02:19:52.525Z,11.18
2023-04-30T02:22:19.221Z,11.00
2023-04-30T02:24:45.846Z,11.90
2023-04-30T02:27:13.346Z,10.70
2023-04-30T02:29:39.883Z,10.98
2023-04-30T02:32:06.399Z,10.55
2023-04-30T02:34:32.860Z,10.13
2023-04-30T02:36:59.321Z,10.88
2023-04-30T02:39:25.919Z,10.13
2023-04-30T02:41:52.435Z,10.68
2023-04-30T02:44:18.916Z,12.10
2023-04-30T02:46:45.495Z,11.27
2023-04-30T02:49:12.026Z,12.23
2023-04-30T02:51:38.591Z,10.80
2023-04-30T02:54:05.097Z,9.77
2023-04-30T02:56:31.623Z,10.10
2023-04-30T02:58:58.128Z,10.70
2023-04-30T03:01:24.761Z,10.20
2023-04-30T03:03:51.334Z,10.05
2023-04-30T03:06:17.843Z,10.18
2023-04-30T03:08:44.495Z,11.32
2023-04-30T03:11:11.041Z,10.23
2023-04-30T03:13:37.681Z,11.00
2023-04-30T03:16:04.849Z,10.23
2023-04-30T03:18:31.387Z,10.48
2023-04-30T03:20:58.360Z,10.35
2023-04-30T03:23:27.699Z,11.07
2023-04-30T03:25:54.185Z,10.45
2023-04-30T03:28:21.230Z,10.18
2023-04-30T03:30:47.753Z,10.25
2023-04-30T03:33:14.366Z,10.75
2023-04-30T03:35:41.010Z,9.85
2023-04-30T03:38:07.649Z,11.00
2023-04-30T03:40:34.191Z,12.32
2023-04-30T03:43:00.726Z,10.85
2023-04-30T03:45:27.277Z,11.10
2023-04-30T03:47:53.944Z,12.05
2023-04-30T03:50:20.737Z,10.95
2023-04-30T03:52:47.238Z,10.63
2023-04-30T03:55:13.762Z,10.32
2023-04-30T03:57:40.392Z,10.52
2023-04-30T04:00:07.667Z,10.52
2023-04-30T04:02:34.328Z,11.15
2023-04-30T04:05:00.966Z,10.27
2023-04-30T04:07:27.486Z,10.70
2023-04-30T04:09:54.106Z,9.20
2023-04-30T04:12:21.861Z,11.15
2023-04-30T04:14:48.362Z,8.45
2023-04-30T04:17:14.865Z,10.18
2023-04-30T04:19:41.399Z,8.65
2023-04-30T04:22:07.980Z,9.25
2023-04-30T04:24:34.464Z,10.27
2023-04-30T04:27:00.982Z,9.68
2023-04-30T04:29:27.503Z,10.52
2023-04-30T04:31:54.077Z,9.85
2023-04-30T04:34:20.765Z,11.50
2023-04-30T04:36:47.380Z,12.38
2023-04-30T04:39:14.038Z,11.70
2023-04-30T04:41:40.541Z,10.10
2023-04-30T04:44:07.092Z,10.98
2023-04-30T04:46:34.879Z,10.77
2023-04-30T04:49:01.396Z,10.63
2023-04-30T04:51:27.866Z,9.55
2023-04-30T04:53:54.359Z,9.75
2023-04-30T04:56:21.046Z,10.43
2023-04-30T04:58:47.860Z,9.55
2023-04-30T05:01:14.460Z,9.25
2023-04-30T05:03:41.093Z,8.98
2023-04-30T05:06:07.725Z,8.30
2023-04-30T05:08:34.306Z,9.43
2023-04-30T05:11:00.847Z,9.25
2023-04-30T05:13:27.345Z,8.77
2023-04-30T05:15:54.450Z,8.65
2023-04-30T05:18:21.192Z,9.02
2023-04-30T05:20:47.684Z,9.13
2023-04-30T05:23:14.187Z,10.00
2023-04-30T05:25:40.678Z,9.32
2023-04-30T05:28:07.174Z,9.10
2023-04-30T05:30:33.843Z,9.98
2023-04-30T05:33:00.424Z,10.35
2023-04-30T05:35:26.955Z,11.88
2023-04-30T05:37:53.532Z,11.32
2023-04-30T05:40:20.143Z,11.45
2023-04-30T05:42:46.640Z,12.82
2023-04-30T05:45:13.508Z,13.40
2023-04-30T05:47:40.755Z,14.20
2023-04-30T05:50:08.064Z,13.80
2023-04-30T05:52:34.594Z,14.13
2023-04-30T05:55:01.128Z,14.93
2023-04-30T05:57:27.726Z,14.88
2023-04-30T05:59:54.490Z,16.70
2023-04-30T06:02:21.285Z,16.00
2023-04-30T06:04:48.089Z,16.75
2023-04-30T06:07:14.628Z,17.52
2023-04-30T06:09:41.168Z,15.13
2023-04-30T06:12:07.707Z,15.23
2023-04-30T06:14:35.623Z,13.40
2023-04-30T06:17:02.154Z,13.38
2023-04-30T06:19:28.698Z,12.57
2023-04-30T06:21:55.234Z,13.48
2023-04-30T06:24:21.705Z,13.55
2023-04-30T06:26:48.226Z,12.50
2023-04-30T06:29:14.690Z,10.65
2023-04-30T06:31:41.270Z,10.88
2023-04-30T06:34:07.829Z,11.23
2023-04-30T06:36:34.316Z,12.00
2023-04-30T06:39:00.852Z,10.93
2023-04-30T06:41:27.463Z,13.65
2023-04-30T06:43:53.946Z,13.20
2023-04-30T06:46:20.502Z,12.75
2023-04-30T06:48:46.964Z,12.07
2023-04-30T06:51:13.521Z,11.75
2023-04-30T06:53:40.070Z,13.68
2023-04-30T06:56:06.796Z,12.63
2023-04-30T06:58:33.300Z,12.68
2023-04-30T07:00:59.804Z,12.52
2023-04-30T07:03:26.365Z,13.65
2023-04-30T07:05:53.263Z,14.20
2023-04-30T07:08:19.785Z,12.80
2023-04-30T07:10:46.248Z,12.70
2023-04-30T07:13:12.745Z,11.68
2023-04-30T07:15:39.282Z,12.70
2023-04-30T07:18:05.828Z,12.18
2023-04-30T07:20:32.378Z,13.40
2023-04-30T07:22:58.915Z,12.88
2023-04-30T07:25:25.453Z,12.63
2023-04-30T07:27:52.339Z,13.63
2023-04-30T07:30:18.985Z,13.10
2023-04-30T07:32:45.590Z,12.30
2023-04-30T07:35:12.154Z,13.25
2023-04-30T07:37:40.998Z,14.10
2023-04-30T07:40:08.299Z,13.18
2023-04-30T07:42:34.854Z,12.65
2023-04-30T07:45:01.330Z,13.20
2023-04-30T07:47:28.008Z,14.07
2023-04-30T07:49:54.749Z,11.02
2023-04-30T07:52:21.401Z,13.02
2023-04-30T07:54:47.910Z,13.35
2023-04-30T07:57:14.416Z,13.40
2023-04-30T07:59:40.963Z,13.13
2023-04-30T08:02:08.889Z,12.73
2023-04-30T08:04:35.697Z,12.45
2023-04-30T08:07:02.218Z,11.95
2023-04-30T08:09:28.836Z,11.35
2023-04-30T08:11:55.331Z,10.40
2023-04-30T08:14:22.181Z,10.38
2023-04-30T08:16:48.710Z,10.98
2023-04-30T08:19:15.217Z,11.73
2023-04-30T08:21:41.755Z,12.15
2023-04-30T08:24:08.265Z,10.48
2023-04-30T08:26:34.727Z,12.32
2023-04-30T08:29:01.328Z,11.40
2023-04-30T08:31:27.938Z,11.68
2023-04-30T08:33:54.499Z,13.52
2023-04-30T08:36:21.010Z,11.95
2023-04-30T08:38:47.495Z,55.72
2023-04-30T08:41:14.860Z,18.15
2023-04-30T08:43:43.395Z,11.73
2023-04-30T08:46:11.935Z,11.20
2023-04-30T08:48:39.217Z,11.77
2023-04-30T08:51:06.339Z,11.55
2023-04-30T08:53:37.013Z,11.30
2023-04-30T08:56:04.388Z,11.93
2023-04-30T08:58:31.114Z,12.10
2023-04-30T09:00:59.213Z,11.38
2023-04-30T09:03:26.157Z,10.75
2023-04-30T09:05:52.730Z,11.50
2023-04-30T09:08:39.706Z,11.35
2023-04-30T09:11:27.145Z,11.52
2023-04-30T09:13:56.396Z,11.68
2023-04-30T09:16:24.628Z,10.88
2023-04-30T09:18:51.747Z,9.02
2023-04-30T09:21:36.867Z,8.57
2023-04-30T09:24:05.083Z,8.15
2023-04-30T09:26:32.585Z,7.93
2023-04-30T09:28:59.906Z,8.63
2023-04-30T09:31:27.427Z,8.15
2023-04-30T09:33:54.227Z,7.18
2023-04-30T09:36:20.943Z,7.95
2023-04-30T09:38:47.728Z,7.60
2023-04-30T09:41:28.914Z,7.63
2023-04-30T09:43:56.170Z,8.45
2023-04-30T09:46:30.790Z,7.57
2023-04-30T09:49:02.591Z,7.15
2023-04-30T09:51:29.494Z,7.05
2023-04-30T09:53:56.058Z,7.13
2023-04-30T09:56:25.100Z,7.72
2023-04-30T09:58:56.260Z,7.88
2023-04-30T10:01:26.285Z,8.43
2023-04-30T10:03:53.575Z,5.43
2023-04-30T10:06:24.206Z,5.90
2023-04-30T10:08:55.998Z,5.80
2023-04-30T10:11:26.634Z,6.47
2023-04-30T10:14:00.788Z,6.93
2023-04-30T10:17:01.208Z,6.70
2023-04-30T10:19:33.695Z,7.30
2023-04-30T10:22:01.608Z,5.00
2023-04-30T10:24:28.680Z,6.78
2023-04-30T10:26:55.374Z,6.68
2023-04-30T10:29:21.908Z,6.13
2023-04-30T10:31:49.771Z,7.20
2023-04-30T10:34:31.920Z,8.43
2023-04-30T10:37:04.424Z,5.93
2023-04-30T10:39:32.577Z,6.57
2023-04-30T10:42:03.806Z,5.82
2023-04-30T10:44:34.722Z,5.45
2023-04-30T10:47:02.108Z,4.78
2023-04-30T10:49:29.255Z,4.78
2023-04-30T10:51:59.702Z,5.18
2023-04-30T10:54:35.036Z,4.78
2023-04-30T10:57:15.808Z,4.18
2023-04-30T10:59:53.093Z,4.32
2023-04-30T11:02:20.148Z,4.43
2023-04-30T11:05:12.842Z,4.13
2023-04-30T11:07:52.420Z,4.13
2023-04-30T11:10:23.893Z,3.72
2023-04-30T11:12:52.692Z,4.32
2023-04-30T11:15:21.411Z,4.75
2023-04-30T11:17:49.160Z,5.20
2023-04-30T11:20:24.144Z,4.85
2023-04-30T11:23:17.443Z,4.00
2023-04-30T11:25:54.581Z,4.25
2023-04-30T11:28:25.515Z,4.20
2023-04-30T11:30:57.260Z,3.97
2023-04-30T11:33:27.190Z,4.00
2023-04-30T11:35:55.791Z,3.67
2023-04-30T11:38:35.335Z,4.18
2023-04-30T11:41:03.375Z,4.05
2023-04-30T11:43:34.502Z,3.28
2023-04-30T11:46:08.272Z,3.50
2023-04-30T11:48:37.027Z,3.10
2023-04-30T11:51:18.124Z,3.35
2023-04-30T11:56:20.574Z,4.13
2023-04-30T11:58:47.967Z,3.40
2023-04-30T12:01:15.241Z,4.00
2023-04-30T12:03:47.183Z,3.78
2023-04-30T12:06:29.884Z,3.28
2023-04-30T12:08:57.864Z,3.90
2023-04-30T12:11:26.883Z,3.47
2023-04-30T12:14:00.847Z,3.45
2023-04-30T12:16:38.397Z,3.47
2023-04-30T12:19:05.269Z,3.38
2023-04-30T12:21:32.518Z,3.45
2023-04-30T12:24:00.420Z,3.08
2023-04-30T12:26:37.555Z,3.63
2023-04-30T12:29:05.428Z,3.88
2023-04-30T12:31:33.019Z,3.38
2023-04-30T12:34:13.642Z,3.80
2023-04-30T12:36:41.589Z,3.33
2023-04-30T12:39:16.258Z,3.88
2023-04-30T12:41:45.247Z,3.53
2023-04-30T12:44:19.840Z,3.40
2023-04-30T12:46:47.904Z,3.22
2023-04-30T12:49:28.835Z,3.30
2023-04-30T12:52:12.620Z,3.58
2023-04-30T12:54:39.696Z,2.80
2023-04-30T12:57:11.134Z,2.97
2023-04-30T12:59:58.131Z,3.38
2023-04-30T13:02:26.963Z,2.85
2023-04-30T13:04:54.117Z,3.20
2023-04-30T13:07:20.701Z,3.13
2023-04-30T13:09:47.578Z,2.92
2023-04-30T13:12:14.086Z,2.55
2023-04-30T13:14:40.658Z,2.67
2023-04-30T13:17:08.338Z,3.72
2023-04-30T13:19:35.057Z,2.22
2023-04-30T13:22:03.061Z,2.08
2023-04-30T13:24:29.530Z,2.90
2023-04-30T13:26:57.495Z,2.40
2023-04-30T13:29:24.209Z,2.40
2023-04-30T13:31:50.751Z,2.40
2023-04-30T13:34:17.269Z,3.03
2023-04-30T13:36:44.015Z,3.10
2023-04-30T13:39:10.492Z,3.00
2023-04-30T13:41:37.102Z,2.45
2023-04-30T13:44:03.644Z,1.73
2023-04-30T13:46:30.249Z,1.80
2023-04-30T13:48:56.780Z,2.10
2023-04-30T13:51:23.389Z,1.95
2023-04-30T13:53:49.902Z,2.92
2023-04-30T13:56:16.422Z,3.53
2023-04-30T13:58:45.710Z,2.65
2023-04-30T14:01:12.336Z,2.35
2023-04-30T14:03:38.909Z,2.30
2023-04-30T14:06:05.607Z,2.30
2023-04-30T14:08:32.122Z,2.35
2023-04-30T14:10:58.839Z,1.92
2023-04-30T14:13:25.359Z,2.00
2023-04-30T14:15:51.895Z,1.92
2023-04-30T14:18:18.436Z,1.73
2023-04-30T14:20:44.942Z,1.90
2023-04-30T14:23:11.434Z,7.72
2023-04-30T14:25:38.095Z,2.42
2023-04-30T14:28:04.738Z,2.15
2023-04-30T14:30:31.364Z,2.33
2023-04-30T14:32:57.886Z,2.17
2023-04-30T14:35:24.501Z,2.10
2023-04-30T14:37:51.016Z,2.17
2023-04-30T14:40:17.500Z,4.07
2023-04-30T14:42:43.980Z,2.58
2023-04-30T14:45:10.875Z,6.40
2023-04-30T14:47:37.738Z,2.00
2023-04-30T14:50:04.640Z,2.20
2023-04-30T14:52:31.274Z,1.98
2023-04-30T14:54:57.774Z,10.52
2023-04-30T14:57:24.742Z,7.00
2023-04-30T14:59:51.266Z,3.20
2023-04-30T15:02:17.822Z,2.00
2023-04-30T15:04:47.044Z,1.92
2023-04-30T15:07:13.720Z,2.00
2023-04-30T15:09:41.536Z,1.83
2023-04-30T15:12:08.053Z,2.47
2023-04-30T15:14:34.533Z,5.63
2023-04-30T15:17:01.134Z,2.30
2023-04-30T15:19:27.654Z,3.55
2023-04-30T15:21:54.155Z,2.72
2023-04-30T15:24:20.987Z,2.10
2023-04-30T15:26:47.569Z,2.20
2023-04-30T15:29:14.105Z,2.70
2023-04-30T15:31:40.674Z,2.58
2023-04-30T15:34:07.207Z,2.15
2023-04-30T15:36:33.698Z,2.50
2023-04-30T15:39:00.202Z,1.80
2023-04-30T15:41:26.735Z,1.60
2023-04-30T15:43:53.283Z,1.67
2023-04-30T15:46:19.949Z,1.50
2023-04-30T15:48:46.448Z,1.70
2023-04-30T15:51:13.049Z,1.33
2023-04-30T15:53:39.549Z,1.42
2023-04-30T15:56:06.186Z,1.60
2023-04-30T15:58:32.795Z,1.50
2023-04-30T16:00:59.314Z,1.55
2023-04-30T16:03:25.868Z,1.70
2023-04-30T16:05:52.656Z,1.50
2023-04-30T16:08:19.373Z,1.65
2023-04-30T16:10:45.970Z,1.30
2023-04-30T16:13:12.491Z,1.30
2023-04-30T16:15:38.985Z,1.85
2023-04-30T16:18:05.721Z,1.38
2023-04-30T16:20:32.463Z,1.30
2023-04-30T16:22:59.050Z,1.30
2023-04-30T16:25:26.965Z,1.30
2023-04-30T16:27:53.513Z,1.30
2023-04-30T16:30:20.111Z,1.42
2023-04-30T16:32:46.583Z,1.27
2023-04-30T16:35:13.464Z,1.40
2023-04-30T16:37:40.102Z,1.20
2023-04-30T16:40:07.165Z,1.30
2023-04-30T16:42:35.376Z,1.10
2023-04-30T16:45:03.551Z,1.10
2023-04-30T16:47:30.114Z,1.13
2023-04-30T16:49:57.198Z,1.20
2023-04-30T16:52:24.005Z,0.93
2023-04-30T16:54:50.475Z,1.27
2023-04-30T16:57:16.928Z,1.60
2023-04-30T16:59:43.486Z,1.20
2023-04-30T17:02:10.118Z,1.30
2023-04-30T17:04:36.708Z,1.40
2023-04-30T17:07:03.210Z,1.60
2023-04-30T17:09:29.864Z,1.33
2023-04-30T17:11:57.733Z,1.40
2023-04-30T17:14:24.279Z,1.40
2023-04-30T17:16:50.744Z,1.40
2023-04-30T17:19:17.262Z,1.58
2023-04-30T17:21:44.332Z,1.30
2023-04-30T17:24:10.862Z,1.50
2023-04-30T17:26:37.458Z,1.40
2023-04-30T17:29:03.947Z,1.55
2023-04-30T17:31:30.682Z,1.20
2023-04-30T17:33:57.255Z,1.02
2023-04-30T17:36:23.787Z,1.45
2023-04-30T17:38:50.270Z,1.40
2023-04-30T17:41:18.004Z,1.10
2023-04-30T17:43:44.728Z,1.30
2023-04-30T17:46:11.273Z,1.92
2023-04-30T17:48:37.890Z,1.30
2023-04-30T17:51:04.430Z,1.30
2023-04-30T17:53:31.438Z,1.73
2023-04-30T17:55:57.911Z,1.30
2023-04-30T17:58:24.609Z,1.40
2023-04-30T18:00:51.216Z,1.40
2023-04-30T18:03:17.834Z,1.50
2023-04-30T18:05:44.396Z,1.40
2023-04-30T18:08:10.895Z,1.30
2023-04-30T18:10:37.414Z,1.60
2023-04-30T18:13:03.904Z,1.67
2023-04-30T18:15:30.436Z,1.50
2023-04-30T18:17:56.973Z,1.40
2023-04-30T18:20:23.517Z,1.20
2023-04-30T18:22:50.092Z,1.20
2023-04-30T18:25:17.658Z,1.60
2023-04-30T18:27:44.140Z,1.25
2023-04-30T18:30:11.236Z,1.77
2023-04-30T18:32:37.765Z,2.50
2023-04-30T18:35:04.686Z,2.38
2023-04-30T18:37:31.473Z,2.20
2023-04-30T18:39:58.133Z,1.90
2023-04-30T18:42:24.791Z,1.35
2023-04-30T18:44:51.337Z,1.30
2023-04-30T18:47:20.790Z,1.50
2023-04-30T18:49:47.338Z,1.17
2023-04-30T18:52:13.827Z,1.35
2023-04-30T18:54:40.398Z,1.30
2023-04-30T18:57:06.881Z,0.93
2023-04-30T18:59:33.437Z,1.38
2023-04-30T19:02:00.012Z,1.20
2023-04-30T19:04:29.120Z,1.02
2023-04-30T19:06:55.834Z,1.15
2023-04-30T19:09:24.944Z,1.30
2023-04-30T19:11:51.759Z,1.17
2023-04-30T19:14:18.239Z,1.38
2023-04-30T19:16:44.809Z,1.40
2023-04-30T19:19:11.898Z,1.38
2023-04-30T19:21:38.544Z,1.00
2023-04-30T19:24:05.095Z,1.40
2023-04-30T19:26:32.455Z,1.27
2023-04-30T19:28:58.923Z,1.20
2023-04-30T19:31:25.762Z,1.23
2023-04-30T19:33:52.368Z,1.38
2023-04-30T19:36:19.015Z,1.35
2023-04-30T19:38:46.021Z,1.20
2023-04-30T19:41:12.543Z,1.20
2023-04-30T19:43:39.221Z,1.48
2023-04-30T19:46:05.766Z,1.30
2023-04-30T19:48:32.297Z,1.42
2023-04-30T19:50:58.827Z,1.50
2023-04-30T19:53:25.323Z,1.33
2023-04-30T19:55:51.897Z,1.85
2023-04-30T19:58:18.636Z,1.13
2023-04-30T20:00:46.796Z,1.35
2023-04-30T20:03:14.767Z,1.33
2023-04-30T20:05:41.675Z,1.45
2023-04-30T20:08:09.088Z,1.50
2023-04-30T20:10:38.354Z,1.60
2023-04-30T20:13:06.393Z,1.38
2023-04-30T20:15:34.993Z,1.33
2023-04-30T20:18:01.646Z,1.20
2023-04-30T20:20:29.238Z,1.38
2023-04-30T20:22:56.326Z,1.60
2023-04-30T20:25:24.997Z,1.17
2023-04-30T20:27:51.743Z,1.40
2023-04-30T20:30:18.471Z,1.70
2023-04-30T20:32:45.178Z,1.58
2023-04-30T20:35:11.689Z,1.52
2023-04-30T20:37:38.202Z,2.08
2023-04-30T20:40:05.094Z,1.27
2023-04-30T20:42:32.531Z,1.23
2023-04-30T20:45:03.897Z,1.42
2023-04-30T20:47:31.885Z,1.35
2023-04-30T20:49:59.449Z,1.50
2023-04-30T21:14:17.150Z,1.70
2023-04-30T21:23:36.931Z,1.63
2023-04-30T21:26:04.579Z,1.75
2023-04-30T21:28:32.506Z,1.58
2023-04-30T21:31:07.971Z,1.50
2023-04-30T21:33:38.204Z,1.33
2023-04-30T21:36:05.496Z,1.50
2023-04-30T21:38:32.067Z,1.40
2023-04-30T21:41:00.828Z,1.33
2023-04-30T21:43:27.312Z,2.00
2023-04-30T21:45:53.897Z,1.70
2023-04-30T21:48:20.711Z,1.77
2023-04-30T21:50:48.424Z,1.60
2023-04-30T21:53:16.351Z,1.83
2023-04-30T21:55:42.949Z,1.70
2023-04-30T21:58:09.509Z,1.70
2023-04-30T22:00:36.151Z,1.63
2023-04-30T22:03:02.656Z,2.33
2023-04-30T22:05:29.184Z,1.83
2023-04-30T22:07:55.724Z,1.70
2023-04-30T22:10:22.202Z,2.25
2023-04-30T22:12:48.765Z,2.05
2023-04-30T22:15:15.521Z,2.00
2023-04-30T22:17:42.118Z,1.73
2023-04-30T22:20:09.273Z,2.00
2023-04-30T22:22:35.857Z,2.10
2023-04-30T22:25:02.469Z,1.95
2023-04-30T22:27:29.005Z,2.00
2023-04-30T22:29:55.703Z,1.80
2023-04-30T22:32:22.259Z,2.38
2023-04-30T22:34:48.725Z,2.25
2023-04-30T22:37:15.200Z,2.50
2023-04-30T22:39:41.677Z,2.20
2023-04-30T22:42:11.155Z,2.08
2023-04-30T22:44:37.822Z,2.17
2023-04-30T22:47:04.679Z,1.90
2023-04-30T22:49:32.238Z,2.10
2023-04-30T22:51:59.546Z,2.40
2023-04-30T22:54:26.317Z,2.28
2023-04-30T22:56:52.925Z,2.10
2023-04-30T22:59:19.530Z,2.08
2023-04-30T23:01:46.046Z,2.20
2023-04-30T23:04:12.663Z,2.10
2023-04-30T23:06:39.265Z,2.13
2023-04-30T23:09:05.773Z,2.17
2023-04-30T23:11:32.462Z,1.88
2023-04-30T23:13:59.043Z,2.03
2023-04-30T23:16:25.663Z,2.42
2023-04-30T23:18:52.223Z,1.92
2023-04-30T23:21:18.760Z,2.03
2023-04-30T23:23:45.244Z,2.08
2023-04-30T23:26:11.758Z,2.20
2023-04-30T23:28:38.296Z,2.08
2023-04-30T23:31:04.777Z,2.25
2023-04-30T23:36:14.768Z,2.35
2023-04-30T23:38:41.324Z,2.00
2023-04-30T23:41:07.871Z,2.40
2023-04-30T23:43:34.470Z,2.42
2023-04-30T23:46:01.436Z,2.30
2023-04-30T23:48:28.145Z,2.50
2023-04-30T23:50:58.945Z,2.55
2023-04-30T23:53:25.603Z,2.25
2023-04-30T23:55:52.430Z,2.30
2023-04-30T23:58:18.960Z,2.10
